Time;durP1;ratioP1;P1;durP2;ratioP2;P2;SDS_P1;SDS_P2;PMS_P1;PMS_P2;Temp;Humidity;BMP_temperature;BMP_pressure;BME280_temperature;BME280_humidity;BME280_pressure;Samples;Min_cycle;Max_cycle;Signal;HPM_P1;HPM_P2
2021/03/03 00:00:49;;;;;;;46.45;23.77;;;4.30;90.10;;;;;;5008091;28;20082;-76
2021/03/03 00:03:15;;;;;;;45.40;25.33;;;4.30;90.20;;;;;;5007819;28;20486;-77
2021/03/03 00:05:41;;;;;;;45.70;23.83;;;4.30;90.10;;;;;;4991721;28;20042;-77
2021/03/03 00:08:07;;;;;;;43.63;24.17;;;4.20;90.20;;;;;;5008638;28;20034;-76
2021/03/03 00:10:33;;;;;;;41.80;24.27;;;4.20;90.20;;;;;;5008558;28;20427;-77
2021/03/03 00:12:58;;;;;;;47.58;25.70;;;4.10;90.20;;;;;;5010395;28;20045;-77
2021/03/03 00:15:24;;;;;;;44.95;24.42;;;4.10;90.20;;;;;;5011988;28;20100;-77
2021/03/03 00:17:50;;;;;;;47.33;23.65;;;4.10;90.20;;;;;;5012015;28;20038;-76
2021/03/03 00:20:16;;;;;;;52.10;25.85;;;4.00;90.30;;;;;;5023555;28;20101;-77
2021/03/03 00:22:42;;;;;;;45.72;24.05;;;4.00;90.40;;;;;;5032533;28;20053;-77
2021/03/03 00:25:08;;;;;;;44.70;23.63;;;4.00;90.30;;;;;;5030515;28;20042;-77
2021/03/03 00:27:34;;;;;;;44.63;23.38;;;4.00;90.40;;;;;;5033116;28;20564;-76
2021/03/03 00:29:59;;;;;;;44.28;24.48;;;3.90;90.30;;;;;;5004302;28;20050;-76
2021/03/03 00:32:25;;;;;;;50.78;26.65;;;3.90;90.40;;;;;;5031587;28;20042;-77
2021/03/03 00:34:51;;;;;;;42.53;23.85;;;4.00;90.70;;;;;;5032151;28;20449;-77
2021/03/03 00:37:17;;;;;;;39.38;21.83;;;3.90;90.60;;;;;;5031903;28;20045;-76
2021/03/03 00:39:43;;;;;;;47.15;23.25;;;3.80;90.50;;;;;;5016380;28;20056;-76
2021/03/03 00:42:10;;;;;;;48.30;24.60;;;3.80;90.60;;;;;;5011962;28;20062;-76
2021/03/03 00:44:36;;;;;;;43.28;25.38;;;3.80;90.70;;;;;;5011419;28;20045;-76
2021/03/03 00:47:02;;;;;;;55.63;25.70;;;3.80;90.60;;;;;;5012339;28;20041;-76
2021/03/03 00:49:28;;;;;;;38.70;20.77;;;3.80;90.60;;;;;;5012033;28;20042;-76
2021/03/03 00:51:54;;;;;;;45.72;22.10;;;3.90;90.80;;;;;;5011427;28;20448;-76
2021/03/03 00:54:20;;;;;;;43.25;21.90;;;3.90;90.80;;;;;;4994507;28;20057;-76
2021/03/03 00:56:46;;;;;;;42.42;21.20;;;3.90;90.70;;;;;;5010977;28;20068;-76
2021/03/03 00:59:12;;;;;;;33.72;19.90;;;3.90;90.60;;;;;;5011675;28;20052;-76
2021/03/03 01:01:37;;;;;;;37.35;18.52;;;3.80;90.50;;;;;;5011202;28;20343;-76
2021/03/03 01:04:03;;;;;;;43.05;22.35;;;3.80;90.50;;;;;;5011686;28;20465;-76
2021/03/03 01:06:29;;;;;;;38.75;20.48;;;3.80;90.70;;;;;;5011347;28;20050;-76
2021/03/03 01:08:55;;;;;;;43.00;20.38;;;3.80;91.10;;;;;;5011881;28;20042;-76
2021/03/03 01:11:21;;;;;;;42.42;20.05;;;3.80;90.90;;;;;;5011215;28;20412;-76
2021/03/03 01:13:47;;;;;;;45.92;21.48;;;3.80;90.80;;;;;;5009469;28;20056;-77
2021/03/03 01:16:13;;;;;;;43.33;21.73;;;3.80;90.80;;;;;;5031227;28;20041;-77
2021/03/03 01:18:39;;;;;;;41.60;20.83;;;3.80;90.80;;;;;;5030242;28;20643;-76
2021/03/03 01:21:05;;;;;;;42.65;19.88;;;3.90;90.80;;;;;;5011280;28;20038;-76
2021/03/03 01:23:31;;;;;;;53.72;24.25;;;3.90;90.80;;;;;;5011049;28;20572;-77
2021/03/03 01:25:57;;;;;;;41.58;21.10;;;3.90;90.80;;;;;;5010096;28;20133;-76
2021/03/03 01:28:22;;;;;;;43.03;22.23;;;3.90;90.70;;;;;;5011102;28;20037;-77
2021/03/03 01:30:48;;;;;;;52.00;22.30;;;3.90;90.70;;;;;;5023988;28;20073;-76
2021/03/03 01:33:25;;;;;;;43.97;22.17;;;3.90;90.70;;;;;;5025413;28;20399;-76
2021/03/03 01:35:51;;;;;;;51.92;25.17;;;3.90;90.90;;;;;;5011503;28;20052;-76
2021/03/03 01:38:18;;;;;;;49.65;24.13;;;3.90;91.00;;;;;;5016331;28;20041;-77
2021/03/03 01:40:44;;;;;;;47.70;23.52;;;3.90;91.00;;;;;;5029722;28;20579;-77
2021/03/03 01:43:10;;;;;;;53.20;23.60;;;3.90;90.90;;;;;;5030242;28;20446;-76
2021/03/03 01:45:36;;;;;;;47.15;20.48;;;3.90;90.80;;;;;;5031009;28;20088;-76
2021/03/03 01:48:02;;;;;;;41.83;22.17;;;3.90;90.80;;;;;;5013428;28;20449;-76
2021/03/03 01:50:30;;;;;;;43.53;22.30;;;3.90;90.80;;;;;;5030813;28;20041;-76
2021/03/03 01:52:57;;;;;;;39.80;19.80;;;3.90;90.80;;;;;;5029409;28;20331;-76
2021/03/03 01:55:23;;;;;;;46.15;22.77;;;3.80;90.70;;;;;;5024920;28;20377;-76
2021/03/03 01:57:50;;;;;;;52.30;24.23;;;3.80;90.80;;;;;;5010058;28;20049;-77
2021/03/03 02:00:17;;;;;;;48.70;24.40;;;3.80;90.80;;;;;;5010272;28;20439;-76
2021/03/03 02:02:42;;;;;;;40.17;20.05;;;3.80;90.80;;;;;;5015990;28;20050;-76
2021/03/03 02:05:09;;;;;;;44.80;20.92;;;3.80;91.00;;;;;;5022784;28;20037;-76
2021/03/03 02:07:44;;;;;;;52.35;24.13;;;3.70;91.00;;;;;;5022529;28;20037;-77
2021/03/03 02:10:32;;;;;;;43.30;23.88;;;3.80;91.20;;;;;;5029759;28;20072;-77
2021/03/03 02:13:03;;;;;;;46.50;22.48;;;3.70;91.00;;;;;;5030680;28;20044;-77
2021/03/03 02:15:31;;;;;;;45.15;22.48;;;3.70;91.10;;;;;;5030396;28;20067;-77
2021/03/03 02:17:58;;;;;;;49.20;22.50;;;3.70;91.00;;;;;;5030379;28;20041;-77
2021/03/03 02:20:27;;;;;;;43.60;20.85;;;3.70;91.30;;;;;;5015300;28;20129;-76
2021/03/03 02:23:14;;;;;;;44.38;18.85;;;3.60;90.90;;;;;;5008670;28;20132;-76
2021/03/03 02:25:43;;;;;;;41.80;19.42;;;3.50;90.80;;;;;;5030248;28;20073;-77
2021/03/03 02:28:11;;;;;;;45.92;21.40;;;3.50;90.80;;;;;;5029557;28;20128;-76
2021/03/03 02:30:39;;;;;;;39.63;19.50;;;3.50;91.10;;;;;;5029971;28;20048;-76
2021/03/03 02:33:06;;;;;;;40.60;18.92;;;3.40;90.90;;;;;;5029463;28;20041;-76
2021/03/03 02:35:33;;;;;;;42.58;19.08;;;3.40;90.80;;;;;;5029198;28;20393;-77
2021/03/03 02:38:00;;;;;;;45.45;20.60;;;3.30;90.90;;;;;;5028956;28;20048;-77
2021/03/03 02:40:28;;;;;;;41.28;21.45;;;3.30;91.00;;;;;;5015322;28;20426;-76
2021/03/03 02:42:55;;;;;;;42.65;22.02;;;3.20;90.90;;;;;;5010016;28;20720;-76
2021/03/03 02:45:24;;;;;;;49.47;22.77;;;3.20;91.00;;;;;;5023423;28;20038;-76
2021/03/03 02:47:50;;;;;;;50.83;25.42;;;3.20;91.00;;;;;;5029802;28;20140;-76
2021/03/03 02:50:17;;;;;;;49.75;22.83;;;3.20;91.40;;;;;;5027910;28;20047;-76
2021/03/03 02:52:47;;;;;;;47.25;22.98;;;3.30;91.60;;;;;;5029053;28;20056;-77
2021/03/03 02:55:14;;;;;;;52.97;23.98;;;3.30;91.30;;;;;;5028948;28;20067;-76
2021/03/03 02:57:41;;;;;;;37.83;19.45;;;3.30;91.30;;;;;;5028728;28;20053;-76
2021/03/03 03:00:08;;;;;;;51.53;24.63;;;3.40;92.00;;;;;;5028749;28;20126;-76
2021/03/03 03:02:35;;;;;;;42.97;21.08;;;3.40;92.10;;;;;;5029680;28;20060;-77
2021/03/03 03:05:04;;;;;;;49.95;22.58;;;3.40;91.90;;;;;;5029420;28;20084;-76
2021/03/03 03:07:34;;;;;;;42.38;21.27;;;3.50;91.80;;;;;;5029464;28;20037;-76
2021/03/03 03:10:03;;;;;;;55.95;23.42;;;3.50;91.70;;;;;;5029514;28;20045;-76
2021/03/03 03:12:30;;;;;;;46.00;20.48;;;3.50;91.70;;;;;;5027808;28;20053;-76
2021/03/03 03:14:59;;;;;;;43.58;20.80;;;3.50;91.80;;;;;;5029088;28;20442;-76
2021/03/03 03:17:25;;;;;;;49.10;20.13;;;3.50;91.70;;;;;;5028877;28;20667;-77
2021/03/03 03:19:53;;;;;;;48.03;21.25;;;3.50;91.80;;;;;;5029098;28;20449;-76
2021/03/03 03:22:25;;;;;;;44.58;19.67;;;3.50;92.00;;;;;;5027521;28;20496;-77
2021/03/03 03:24:53;;;;;;;42.88;20.80;;;3.50;91.70;;;;;;5027861;28;20069;-77
2021/03/03 03:27:20;;;;;;;50.67;21.25;;;3.50;91.80;;;;;;5027980;28;20075;-76
2021/03/03 03:29:46;;;;;;;47.40;21.63;;;3.50;91.70;;;;;;5028014;28;20044;-77
2021/03/03 03:32:12;;;;;;;42.22;19.35;;;3.50;91.80;;;;;;5028591;28;20037;-77
2021/03/03 03:34:38;;;;;;;40.92;21.55;;;3.50;92.10;;;;;;5011784;28;20049;-77
2021/03/03 03:37:07;;;;;;;40.53;18.48;;;3.40;91.80;;;;;;5028722;28;20152;-77
2021/03/03 03:39:35;;;;;;;44.65;20.70;;;3.40;91.80;;;;;;5028561;28;20045;-76
2021/03/03 03:42:04;;;;;;;38.55;19.27;;;3.40;91.70;;;;;;5027848;28;20167;-77
2021/03/03 03:44:31;;;;;;;41.17;19.13;;;3.40;91.90;;;;;;5028799;28;20124;-77
2021/03/03 03:46:57;;;;;;;39.13;19.10;;;3.40;92.00;;;;;;5027766;28;20334;-77
2021/03/03 03:49:24;;;;;;;39.95;19.25;;;3.30;91.90;;;;;;5028281;28;20630;-76
2021/03/03 03:51:50;;;;;;;41.35;20.05;;;3.30;91.80;;;;;;5028785;28;20585;-77
2021/03/03 03:54:16;;;;;;;44.20;20.23;;;3.20;92.20;;;;;;5027236;28;20045;-77
2021/03/03 03:56:43;;;;;;;44.25;19.75;;;3.30;92.20;;;;;;5028497;28;20457;-77
2021/03/03 03:59:09;;;;;;;51.70;22.30;;;3.30;92.10;;;;;;5027833;28;20128;-77
2021/03/03 04:01:35;;;;;;;38.60;19.65;;;3.30;91.90;;;;;;5028564;28;20124;-76
2021/03/03 04:04:01;;;;;;;47.10;21.95;;;3.30;92.10;;;;;;5011509;28;20045;-77
2021/03/03 04:06:27;;;;;;;48.35;23.85;;;3.30;92.10;;;;;;5026800;28;20091;-77
2021/03/03 04:08:53;;;;;;;48.53;21.77;;;3.30;91.90;;;;;;5028714;28;20060;-76
2021/03/03 04:11:19;;;;;;;39.10;19.35;;;3.30;91.90;;;;;;5026691;28;20037;-77
2021/03/03 04:13:44;;;;;;;45.15;19.55;;;3.20;91.60;;;;;;5027171;28;20048;-77
2021/03/03 04:16:10;;;;;;;40.65;20.48;;;3.20;91.60;;;;;;5027030;28;20045;-77
2021/03/03 04:18:36;;;;;;;38.70;18.13;;;3.20;91.60;;;;;;5027871;28;20047;-76
2021/03/03 04:21:03;;;;;;;37.42;17.08;;;3.10;91.40;;;;;;5017626;28;20065;-77
2021/03/03 04:23:29;;;;;;;43.78;19.63;;;3.10;91.40;;;;;;5008886;28;20041;-77
2021/03/03 04:25:54;;;;;;;42.40;19.88;;;3.10;91.50;;;;;;5008355;28;20049;-77
2021/03/03 04:28:20;;;;;;;42.75;18.95;;;3.10;91.60;;;;;;5008485;28;20053;-77
2021/03/03 04:30:46;;;;;;;45.47;20.70;;;3.10;91.60;;;;;;5021466;28;20757;-77
2021/03/03 04:33:13;;;;;;;39.85;20.42;;;3.10;91.60;;;;;;5028010;28;20103;-77
2021/03/03 04:35:39;;;;;;;44.60;20.80;;;3.00;91.50;;;;;;5028184;28;20410;-77
2021/03/03 04:38:06;;;;;;;36.00;17.13;;;3.00;91.50;;;;;;5024568;28;20034;-77
2021/03/03 04:40:32;;;;;;;38.20;19.65;;;3.00;91.50;;;;;;4991359;28;20065;-77
2021/03/03 04:42:59;;;;;;;40.85;20.02;;;3.00;91.40;;;;;;5008533;28;20108;-77
2021/03/03 04:45:24;;;;;;;42.28;19.88;;;2.90;91.40;;;;;;5008255;28;20096;-77
2021/03/03 04:47:50;;;;;;;45.83;18.95;;;2.90;91.50;;;;;;5009018;28;20038;-77
2021/03/03 04:50:16;;;;;;;38.35;21.08;;;2.90;91.40;;;;;;5008100;28;20042;-77
2021/03/03 04:52:42;;;;;;;38.45;19.65;;;2.90;91.50;;;;;;5007309;28;20052;-77
2021/03/03 04:55:08;;;;;;;45.75;18.52;;;2.80;91.40;;;;;;5006478;28;20154;-77
2021/03/03 04:57:34;;;;;;;47.72;20.50;;;2.80;91.40;;;;;;5007294;28;20449;-77
2021/03/03 05:00:00;;;;;;;41.20;21.05;;;2.80;91.40;;;;;;5010354;28;20046;-77
2021/03/03 05:02:26;;;;;;;43.17;21.38;;;2.80;91.50;;;;;;5010672;28;20052;-77
2021/03/03 05:04:52;;;;;;;37.65;19.90;;;2.80;91.60;;;;;;4994451;28;20041;-77
2021/03/03 05:07:18;;;;;;;48.63;22.05;;;2.80;91.80;;;;;;5011133;28;20168;-77
2021/03/03 05:09:44;;;;;;;46.28;22.48;;;2.80;91.70;;;;;;5011814;28;20074;-78
2021/03/03 05:12:10;;;;;;;44.75;19.95;;;2.80;91.70;;;;;;5010874;28;20074;-77
2021/03/03 05:14:38;;;;;;;45.47;20.77;;;2.80;91.80;;;;;;5027542;28;20033;-77
2021/03/03 05:17:04;;;;;;;40.67;18.85;;;2.80;91.70;;;;;;5031038;28;20046;-76
2021/03/03 05:19:30;;;;;;;47.25;21.60;;;2.70;91.60;;;;;;5023712;28;20045;-77
2021/03/03 05:21:55;;;;;;;49.30;19.55;;;2.70;91.70;;;;;;5030603;28;20064;-77
2021/03/03 05:24:21;;;;;;;40.10;18.77;;;2.70;92.00;;;;;;5030607;28;20052;-77
2021/03/03 05:26:47;;;;;;;44.58;20.92;;;2.70;91.70;;;;;;5030958;28;20053;-77
2021/03/03 05:29:13;;;;;;;41.25;21.00;;;2.70;91.70;;;;;;5030380;28;20052;-77
2021/03/03 05:31:39;;;;;;;45.80;19.98;;;2.70;91.60;;;;;;5012149;28;20072;-77
2021/03/03 05:34:05;;;;;;;43.95;19.42;;;2.70;91.60;;;;;;5009775;28;20041;-77
2021/03/03 05:36:30;;;;;;;40.47;19.25;;;2.60;91.80;;;;;;5011530;28;20462;-77
2021/03/03 05:38:56;;;;;;;45.22;20.23;;;2.70;91.90;;;;;;5011194;28;20042;-77
2021/03/03 05:41:26;;;;;;;39.15;20.63;;;2.70;92.00;;;;;;5010808;28;20073;-78
2021/03/03 05:43:53;;;;;;;40.58;20.48;;;2.70;92.00;;;;;;5011381;28;20046;-77
2021/03/03 05:46:20;;;;;;;45.75;22.48;;;2.70;92.00;;;;;;5010761;28;20044;-77
2021/03/03 05:49:02;;;;;;;49.47;21.42;;;2.70;91.80;;;;;;5010171;28;20041;-77
2021/03/03 05:51:34;;;;;;;38.88;18.38;;;2.70;91.60;;;;;;5012213;28;20038;-77
2021/03/03 05:54:05;;;;;;;39.90;18.77;;;2.70;91.80;;;;;;4994347;28;20052;-77
2021/03/03 05:56:35;;;;;;;40.22;18.40;;;2.60;91.60;;;;;;5011676;28;20056;-77
2021/03/03 05:59:02;;;;;;;45.20;19.08;;;2.60;92.00;;;;;;5009987;28;20041;-77
2021/03/03 06:01:37;;;;;;;47.70;21.33;;;2.60;92.20;;;;;;5002353;28;20038;-77
2021/03/03 06:04:04;;;;;;;41.63;20.55;;;2.60;91.90;;;;;;5009614;28;20048;-76
2021/03/03 06:06:30;;;;;;;42.17;21.13;;;2.60;92.20;;;;;;5012564;28;20102;-77
2021/03/03 06:08:57;;;;;;;42.70;20.08;;;2.60;92.00;;;;;;5018780;28;20046;-77
2021/03/03 06:11:22;;;;;;;40.00;21.13;;;2.60;92.40;;;;;;5025433;28;20812;-77
2021/03/03 06:13:48;;;;;;;46.20;22.35;;;2.70;92.50;;;;;;5012466;28;20037;-76
2021/03/03 06:16:16;;;;;;;52.65;22.95;;;2.70;92.50;;;;;;5029699;28;20056;-76
2021/03/03 06:18:42;;;;;;;43.70;19.88;;;2.80;92.20;;;;;;5029302;28;20052;-76
2021/03/03 06:21:27;;;;;;;45.55;22.20;;;2.70;92.10;;;;;;5029264;28;20047;-76
2021/03/03 06:24:08;;;;;;;41.03;20.42;;;2.80;92.10;;;;;;5030123;28;20064;-77
2021/03/03 06:26:35;;;;;;;40.88;20.83;;;2.80;92.00;;;;;;5029523;28;20061;-77
2021/03/03 06:29:13;;;;;;;43.80;20.35;;;2.80;92.20;;;;;;5029791;28;20056;-77
2021/03/03 06:31:39;;;;;;;41.63;22.02;;;2.80;92.30;;;;;;5025496;28;20480;-76
2021/03/03 06:34:18;;;;;;;40.13;18.67;;;2.80;92.60;;;;;;5011970;28;20144;-77
2021/03/03 06:37:04;;;;;;;37.67;19.45;;;2.80;92.60;;;;;;5029481;28;20038;-76
2021/03/03 06:39:35;;;;;;;43.08;21.65;;;2.80;92.40;;;;;;5030608;28;20041;-77
2021/03/03 06:42:04;;;;;;;34.00;18.42;;;2.80;92.30;;;;;;5029512;28;20044;-76
2021/03/03 06:44:56;;;;;;;38.33;21.20;;;2.90;92.50;;;;;;5029358;28;20068;-77
2021/03/03 06:47:23;;;;;;;35.45;19.52;;;2.90;92.60;;;;;;5028442;28;20326;-77
2021/03/03 06:49:51;;;;;;;39.85;20.08;;;3.00;92.70;;;;;;5012192;28;20068;-77
2021/03/03 06:52:17;;;;;;;42.80;21.90;;;3.00;92.50;;;;;;5028937;28;20030;-76
2021/03/03 06:54:43;;;;;;;41.78;21.80;;;3.00;92.30;;;;;;5020070;28;20123;-76
2021/03/03 06:57:13;;;;;;;42.75;20.48;;;3.00;92.20;;;;;;5008749;28;20073;-76
2021/03/03 06:59:43;;;;;;;39.85;19.05;;;3.00;92.40;;;;;;5008639;28;20461;-76
2021/03/03 07:02:13;;;;;;;44.83;21.60;;;3.10;92.40;;;;;;5009752;28;20096;-76
2021/03/03 07:04:41;;;;;;;37.42;19.05;;;3.10;92.40;;;;;;5028413;28;20041;-77
2021/03/03 07:07:10;;;;;;;40.25;18.98;;;3.10;92.40;;;;;;5027598;28;20418;-76
2021/03/03 07:09:41;;;;;;;35.65;17.70;;;3.20;92.40;;;;;;5015750;28;20080;-77
2021/03/03 07:12:11;;;;;;;33.63;19.00;;;3.20;92.60;;;;;;5027589;28;20048;-76
2021/03/03 07:14:39;;;;;;;39.63;19.42;;;3.30;92.50;;;;;;5029377;28;20098;-77
2021/03/03 07:17:21;;;;;;;40.78;19.45;;;3.30;92.50;;;;;;5028649;28;20438;-76
2021/03/03 07:19:49;;;;;;;32.85;18.65;;;3.30;92.50;;;;;;5028294;28;20041;-77
2021/03/03 07:22:34;;;;;;;46.75;21.40;;;3.40;92.70;;;;;;5028088;28;20042;-76
2021/03/03 07:25:09;;;;;;;40.15;20.25;;;3.40;92.50;;;;;;5016839;28;20057;-77
2021/03/03 07:27:37;;;;;;;41.90;19.70;;;3.40;92.60;;;;;;5029281;28;20470;-76
2021/03/03 07:30:16;;;;;;;33.47;16.95;;;3.50;92.60;;;;;;5028031;28;20501;-76
2021/03/03 07:32:43;;;;;;;32.67;17.98;;;3.60;92.40;;;;;;5028717;28;20071;-77
2021/03/03 07:35:11;;;;;;;36.97;18.70;;;3.60;92.50;;;;;;5028023;28;20037;-76
2021/03/03 07:37:48;;;;;;;34.10;19.52;;;3.70;92.60;;;;;;5028601;28;20069;-77
2021/03/03 07:40:17;;;;;;;47.90;23.10;;;3.80;92.50;;;;;;5015469;28;20045;-77
2021/03/03 07:43:00;;;;;;;42.15;21.83;;;3.80;92.60;;;;;;5027248;28;20451;-76
2021/03/03 07:45:45;;;;;;;39.17;22.37;;;3.90;92.60;;;;;;5028144;28;20041;-76
2021/03/03 07:48:12;;;;;;;41.35;22.08;;;4.20;92.90;;;;;;5027658;28;20044;-77
2021/03/03 07:50:40;;;;;;;33.38;20.42;;;4.70;92.70;;;;;;5027660;28;20124;-76
2021/03/03 07:53:08;;;;;;;39.58;19.48;;;5.20;92.10;;;;;;5026758;28;20037;-76
2021/03/03 07:55:35;;;;;;;43.40;20.08;;;5.70;91.50;;;;;;5011782;28;20137;-76
2021/03/03 07:58:04;;;;;;;33.22;20.58;;;6.00;91.00;;;;;;5008817;28;20041;-76
2021/03/03 08:00:37;;;;;;;40.50;22.40;;;6.40;90.60;;;;;;5008340;28;20045;-77
2021/03/03 08:03:06;;;;;;;36.53;19.70;;;6.60;90.10;;;;;;5007440;28;20046;-76
2021/03/03 08:05:38;;;;;;;33.80;22.58;;;6.90;89.90;;;;;;5007496;28;20342;-76
2021/03/03 08:08:13;;;;;;;36.78;20.88;;;7.10;89.70;;;;;;5007508;28;20042;-76
2021/03/03 08:10:41;;;;;;;42.20;21.35;;;7.40;88.90;;;;;;5009112;28;20453;-75
2021/03/03 08:13:11;;;;;;;36.92;19.27;;;7.70;88.40;;;;;;5027613;28;20052;-76
2021/03/03 08:15:44;;;;;;;31.58;20.17;;;7.80;87.80;;;;;;5027109;28;20045;-76
2021/03/03 08:18:23;;;;;;;34.05;21.48;;;8.00;87.70;;;;;;5014880;28;20191;-77
2021/03/03 08:20:51;;;;;;;43.90;22.40;;;8.10;87.20;;;;;;5028075;28;20055;-76
2021/03/03 08:23:50;;;;;;;42.05;21.50;;;8.20;87.40;;;;;;5027676;28;20045;-76
2021/03/03 08:26:16;;;;;;;35.83;21.52;;;8.40;85.90;;;;;;5002452;28;20053;-76
2021/03/03 08:28:46;;;;;;;37.22;23.10;;;8.40;86.70;;;;;;5028300;28;20358;-76
2021/03/03 08:31:14;;;;;;;39.45;23.70;;;8.20;87.50;;;;;;5027224;28;20120;-76
2021/03/03 08:33:50;;;;;;;38.78;21.88;;;8.20;87.80;;;;;;5029406;28;20050;-77
2021/03/03 08:36:21;;;;;;;41.10;23.77;;;8.30;88.10;;;;;;5031241;28;20049;-76
2021/03/03 08:39:11;;;;;;;40.75;24.88;;;8.50;87.90;;;;;;5031101;28;20052;-77
2021/03/03 08:41:38;;;;;;;35.20;21.70;;;8.60;88.10;;;;;;5031853;28;20103;-76
2021/03/03 08:44:11;;;;;;;40.92;22.75;;;8.60;87.60;;;;;;5030300;28;20345;-76
2021/03/03 08:46:41;;;;;;;41.60;25.87;;;8.70;88.10;;;;;;5031381;28;20349;-76
2021/03/03 08:49:07;;;;;;;40.40;24.58;;;8.80;88.00;;;;;;5031332;28;20040;-76
2021/03/03 08:51:38;;;;;;;40.92;22.50;;;8.90;88.00;;;;;;5031556;28;20047;-76
2021/03/03 08:54:06;;;;;;;39.83;23.13;;;8.60;87.70;;;;;;5027202;28;20073;-76
2021/03/03 08:56:32;;;;;;;40.95;24.85;;;8.30;88.80;;;;;;5011831;28;20034;-77
2021/03/03 08:58:59;;;;;;;41.53;24.67;;;8.20;89.30;;;;;;5011838;28;20049;-77
2021/03/03 09:01:53;;;;;;;40.50;23.38;;;8.10;89.50;;;;;;5010479;28;20412;-77
2021/03/03 09:04:27;;;;;;;35.90;22.50;;;7.80;90.00;;;;;;5011257;28;20050;-76
2021/03/03 09:06:58;;;;;;;;;;;7.60;90.30;;;;;;5011962;28;20041;-76
2021/03/03 09:09:25;;;;;;;42.42;23.60;;;7.30;88.80;;;;;;5010766;28;19921;-76
2021/03/03 09:12:05;;;;;;;41.38;23.58;;;7.20;90.70;;;;;;5001505;28;20038;-76
2021/03/03 09:14:34;;;;;;;41.90;26.08;;;7.10;91.00;;;;;;5030728;28;20080;-77
2021/03/03 09:17:02;;;;;;;39.72;25.33;;;7.00;91.10;;;;;;5030355;28;20069;-76
2021/03/03 09:19:30;;;;;;;41.45;23.25;;;7.00;91.30;;;;;;5029939;28;20033;-77
2021/03/03 09:21:57;;;;;;;40.55;25.20;;;7.00;91.50;;;;;;5031136;28;20042;-76
2021/03/03 09:24:23;;;;;;;42.95;26.73;;;6.90;91.40;;;;;;5030574;28;20111;-76
2021/03/03 09:26:49;;;;;;;41.75;24.70;;;6.90;91.50;;;;;;5030794;28;20050;-76
2021/03/03 09:29:32;;;;;;;43.63;25.50;;;6.90;91.60;;;;;;5030703;28;20124;-76
2021/03/03 09:32:07;;;;;;;44.78;26.75;;;6.90;91.70;;;;;;5020059;28;20072;-76
2021/03/03 09:34:34;;;;;;;44.08;27.02;;;6.80;91.80;;;;;;5030922;28;20056;-76
2021/03/03 09:37:03;;;;;;;42.47;23.75;;;6.90;91.90;;;;;;5031084;28;20045;-76
2021/03/03 09:39:29;;;;;;;41.05;26.10;;;6.90;92.10;;;;;;5030684;28;20044;-76
2021/03/03 09:42:04;;;;;;;40.78;23.98;;;7.00;92.10;;;;;;5031065;28;20069;-76
2021/03/03 09:44:44;;;;;;;39.75;24.85;;;7.20;92.40;;;;;;5030493;28;20053;-76
2021/03/03 09:47:10;;;;;;;47.53;28.63;;;7.40;92.50;;;;;;5030419;28;20041;-76
2021/03/03 09:49:37;;;;;;;39.35;25.55;;;7.80;92.40;;;;;;5030882;28;20045;-77
2021/03/03 09:52:05;;;;;;;42.53;25.95;;;7.80;92.20;;;;;;5028759;28;20102;-77
2021/03/03 09:54:35;;;;;;;40.72;25.20;;;8.00;92.20;;;;;;5021524;28;20037;-76
2021/03/03 09:57:11;;;;;;;41.83;25.23;;;8.20;92.20;;;;;;5010612;28;20069;-75
2021/03/03 09:59:43;;;;;;;38.88;24.40;;;8.30;92.10;;;;;;5011219;28;20048;-77
2021/03/03 10:02:12;;;;;;;39.70;23.27;;;8.60;91.90;;;;;;5009675;28;20617;-76
2021/03/03 10:04:43;;;;;;;35.75;24.05;;;8.70;91.60;;;;;;5016882;28;20166;-77
2021/03/03 10:07:21;;;;;;;40.42;24.48;;;8.80;91.80;;;;;;5030757;28;20033;-76
2021/03/03 10:09:50;;;;;;;35.47;25.15;;;9.00;92.10;;;;;;5017494;28;20044;-77
2021/03/03 10:12:19;;;;;;;32.50;21.90;;;9.10;91.80;;;;;;5029448;28;20427;-76
2021/03/03 10:14:59;;;;;;;32.65;21.17;;;9.30;91.30;;;;;;5028812;28;20042;-77
2021/03/03 10:17:32;;;;;;;33.65;22.95;;;9.30;91.60;;;;;;5028410;28;20064;-77
2021/03/03 10:19:59;;;;;;;38.38;21.17;;;9.40;91.20;;;;;;5030966;28;20052;-76
2021/03/03 10:22:26;;;;;;;41.50;23.52;;;9.50;91.30;;;;;;5029364;28;20081;-77
2021/03/03 10:25:06;;;;;;;34.22;22.55;;;9.60;91.40;;;;;;5029921;28;20323;-77
2021/03/03 10:27:40;;;;;;;37.63;24.42;;;9.70;91.10;;;;;;5028676;28;20088;-77
2021/03/03 10:30:20;;;;;;;38.75;24.70;;;9.70;91.00;;;;;;5017338;28;20046;-77
2021/03/03 10:32:45;;;;;;;35.42;24.30;;;9.90;91.10;;;;;;5029857;28;20037;-76
2021/03/03 10:35:11;;;;;;;35.90;22.15;;;10.00;91.10;;;;;;5029530;28;20041;-77
2021/03/03 10:37:37;;;;;;;32.95;21.92;;;10.10;91.30;;;;;;5028947;28;20394;-77
2021/03/03 10:40:11;;;;;;;41.63;23.88;;;10.20;90.90;;;;;;5029610;28;20124;-76
2021/03/03 10:42:37;;;;;;;;;;;10.20;90.40;;;;;;5029497;28;20042;-76
2021/03/03 10:45:15;;;;;;;37.17;24.95;;;10.10;86.30;;;;;;5029262;28;20384;-77
2021/03/03 10:47:44;;;;;;;39.05;24.08;;;10.00;90.40;;;;;;5029268;28;20423;-77
2021/03/03 10:50:11;;;;;;;37.78;26.45;;;10.10;90.70;;;;;;5029161;28;20330;-77
2021/03/03 10:52:37;;;;;;;38.03;25.45;;;10.10;90.40;;;;;;5029655;28;20041;-77
2021/03/03 10:55:24;;;;;;;37.05;24.70;;;10.20;90.60;;;;;;5017310;28;20049;-77
2021/03/03 10:58:06;;;;;;;34.53;23.13;;;10.30;90.20;;;;;;5008175;28;20042;-76
2021/03/03 11:00:52;;;;;;;38.92;24.92;;;10.30;90.40;;;;;;5009239;28;20041;-77
2021/03/03 11:03:18;;;;;;;41.80;26.13;;;10.20;90.30;;;;;;5008776;28;20049;-77
2021/03/03 11:05:44;;;;;;;43.03;26.52;;;10.10;90.10;;;;;;5008974;28;20465;-76
2021/03/03 11:08:10;;;;;;;41.80;26.13;;;10.10;90.60;;;;;;5007953;28;20053;-77
2021/03/03 11:10:36;;;;;;;39.22;25.65;;;10.10;90.70;;;;;;5009560;28;20038;-76
2021/03/03 11:13:01;;;;;;;42.10;24.77;;;10.10;91.20;;;;;;5028383;28;20038;-77
2021/03/03 11:15:27;;;;;;;34.00;22.17;;;10.10;91.20;;;;;;5027346;28;20041;-76
2021/03/03 11:17:53;;;;;;;32.05;21.13;;;10.00;90.60;;;;;;5029365;28;20045;-77
2021/03/03 11:20:19;;;;;;;31.33;20.88;;;9.90;90.80;;;;;;5028792;28;20045;-77
2021/03/03 11:22:45;;;;;;;31.52;19.55;;;9.70;90.50;;;;;;5028799;28;20037;-76
2021/03/03 11:25:11;;;;;;;32.65;20.10;;;9.60;91.20;;;;;;5027253;28;20041;-77
2021/03/03 11:27:37;;;;;;;32.13;21.50;;;9.60;91.10;;;;;;5028875;28;20053;-78
2021/03/03 11:30:04;;;;;;;33.78;21.52;;;9.50;91.00;;;;;;5027425;28;20037;-77
2021/03/03 11:32:33;;;;;;;28.42;20.33;;;9.40;91.00;;;;;;5027708;28;20049;-76
2021/03/03 11:34:58;;;;;;;27.63;17.42;;;9.30;91.20;;;;;;5028843;28;20033;-77
2021/03/03 11:37:24;;;;;;;32.03;18.02;;;9.10;91.00;;;;;;5026956;28;20045;-77
2021/03/03 11:39:53;;;;;;;28.35;19.85;;;8.90;91.40;;;;;;5027832;28;20072;-77
2021/03/03 11:42:19;;;;;;;29.02;20.15;;;8.70;91.10;;;;;;5027628;28;20072;-76
2021/03/03 11:44:45;;;;;;;28.73;17.90;;;8.60;91.40;;;;;;5027607;28;20052;-77
2021/03/03 11:47:11;;;;;;;26.95;17.80;;;8.50;91.30;;;;;;5028086;28;20049;-77
2021/03/03 11:49:37;;;;;;;24.77;16.60;;;8.40;91.50;;;;;;5027719;28;20430;-76
2021/03/03 11:52:04;;;;;;;26.05;18.10;;;8.30;90.90;;;;;;5027947;28;20041;-76
2021/03/03 11:54:29;;;;;;;26.17;17.25;;;8.10;90.80;;;;;;5020889;28;20041;-77
2021/03/03 11:56:55;;;;;;;22.50;17.60;;;8.10;91.40;;;;;;5007686;28;20042;-76
2021/03/03 11:59:21;;;;;;;24.40;16.40;;;8.00;91.40;;;;;;5007186;28;20478;-77
2021/03/03 12:01:48;;;;;;;23.55;16.05;;;7.90;91.40;;;;;;5009076;28;20511;-76
2021/03/03 12:04:14;;;;;;;24.23;16.27;;;7.90;91.70;;;;;;5012163;28;20044;-76
2021/03/03 12:06:40;;;;;;;25.15;17.52;;;7.90;91.80;;;;;;5028539;28;20354;-76
2021/03/03 12:09:06;;;;;;;23.52;15.77;;;7.90;92.00;;;;;;5027148;28;20034;-77
2021/03/03 12:11:32;;;;;;;26.05;16.65;;;7.80;91.50;;;;;;5028485;28;20044;-76
2021/03/03 12:13:58;;;;;;;24.70;15.02;;;7.70;91.60;;;;;;5027189;28;20135;-77
2021/03/03 12:16:24;;;;;;;20.33;16.05;;;7.70;91.40;;;;;;5026478;28;20431;-76
2021/03/03 12:18:50;;;;;;;24.70;13.90;;;7.70;91.70;;;;;;5027764;28;20041;-77
2021/03/03 12:21:15;;;;;;;22.60;15.80;;;7.70;91.90;;;;;;5026564;28;20037;-76
2021/03/03 12:23:41;;;;;;;27.45;18.48;;;7.60;91.90;;;;;;5027436;28;20045;-77
2021/03/03 12:26:07;;;;;;;22.92;16.00;;;7.50;92.00;;;;;;5026193;28;20441;-76
2021/03/03 12:28:35;;;;;;;26.17;16.67;;;7.50;91.60;;;;;;5027846;28;20195;-76
2021/03/03 12:31:01;;;;;;;23.63;14.90;;;7.50;91.70;;;;;;5028037;28;20045;-77
2021/03/03 12:33:27;;;;;;;28.67;17.52;;;7.40;91.70;;;;;;5027515;28;20351;-77
2021/03/03 12:35:53;;;;;;;22.65;15.63;;;7.40;91.70;;;;;;5027116;28;20107;-76
2021/03/03 12:38:19;;;;;;;28.65;17.45;;;7.50;91.60;;;;;;5026321;28;20038;-77
2021/03/03 12:40:45;;;;;;;26.25;17.00;;;7.50;92.00;;;;;;5028200;28;20124;-76
2021/03/03 12:43:11;;;;;;;23.40;15.20;;;7.50;91.90;;;;;;4994042;28;20045;-77